Time;durP1;ratioP1;P1;durP2;ratioP2;P2;SDS_P1;SDS_P2;PMS_P1;PMS_P2;Temp;Humidity;BMP_temperature;BMP_pressure;BME280_temperature;BME280_humidity;BME280_pressure;Samples;Min_cycle;Max_cycle;Signal;HPM_P1;HPM_P2
2023/12/20 00:02:22;;;;;;;111.20;47.97;;;6.00;99.90;;;;;;4992056;28;20042;-91
2023/12/20 00:04:48;;;;;;;121.90;47.75;;;6.00;99.90;;;;;;5004693;28;20133;-90
2023/12/20 00:07:15;;;;;;;107.20;45.55;;;5.90;99.90;;;;;;4982681;28;20043;-91
2023/12/20 00:09:44;;;;;;;112.57;47.15;;;6.00;99.90;;;;;;4982112;28;20034;-90
2023/12/20 00:12:10;;;;;;;106.32;44.15;;;6.00;99.90;;;;;;4988735;28;20132;-90
2023/12/20 00:14:37;;;;;;;115.95;44.92;;;6.10;99.90;;;;;;5001370;28;20038;-90
2023/12/20 00:17:04;;;;;;;102.88;44.97;;;6.10;99.90;;;;;;5001305;28;20029;-90
2023/12/20 00:19:30;;;;;;;100.68;40.53;;;6.00;99.90;;;;;;4999633;28;20383;-90
2023/12/20 00:21:57;;;;;;;111.75;44.35;;;5.90;99.90;;;;;;5000348;28;20022;-89
2023/12/20 00:24:23;;;;;;;95.75;42.63;;;5.90;99.90;;;;;;4999359;28;20112;-91
2023/12/20 00:26:49;;;;;;;102.00;42.13;;;5.80;99.90;;;;;;5000002;28;20034;-90
2023/12/20 00:29:16;;;;;;;93.18;39.85;;;5.80;99.90;;;;;;5001922;28;20046;-90
2023/12/20 00:31:42;;;;;;;77.35;35.80;;;5.80;99.90;;;;;;5015258;28;20022;-89
2023/12/20 00:34:09;;;;;;;77.50;35.20;;;5.70;99.90;;;;;;5011192;28;20384;-90
2023/12/20 00:36:35;;;;;;;87.70;35.15;;;5.70;99.90;;;;;;4990004;28;20138;-90
2023/12/20 00:39:01;;;;;;;70.10;33.22;;;5.70;99.90;;;;;;4998435;28;20549;-90
2023/12/20 00:41:31;;;;;;;69.10;32.78;;;5.70;99.90;;;;;;5048300;28;20093;-90
2023/12/20 00:43:58;;;;;;;77.78;31.25;;;5.70;99.90;;;;;;5082559;28;20036;-91
2023/12/20 00:46:25;;;;;;;75.40;30.58;;;5.70;99.90;;;;;;5050737;28;20033;-90
2023/12/20 00:48:51;;;;;;;80.60;31.38;;;5.70;99.90;;;;;;5067555;28;20154;-90
2023/12/20 00:51:18;;;;;;;61.63;28.08;;;5.60;99.90;;;;;;5068318;28;20048;-90
2023/12/20 00:53:49;;;;;;;84.75;32.08;;;5.60;99.90;;;;;;5048107;28;20052;-91
2023/12/20 00:56:16;;;;;;;78.18;32.95;;;5.60;99.90;;;;;;5064993;28;20033;-90
2023/12/20 00:58:45;;;;;;;71.00;32.20;;;5.70;99.90;;;;;;5066401;28;20045;-90
2023/12/20 01:01:12;;;;;;;80.88;34.50;;;5.70;99.90;;;;;;5068411;28;20496;-90
2023/12/20 01:03:39;;;;;;;78.85;34.63;;;5.60;99.90;;;;;;5069475;28;20044;-90
2023/12/20 01:06:06;;;;;;;85.15;35.42;;;5.60;99.90;;;;;;5059753;28;20077;-90
2023/12/20 01:08:34;;;;;;;96.75;37.88;;;5.70;99.90;;;;;;5037563;28;20035;-90
2023/12/20 01:11:03;;;;;;;80.85;36.83;;;5.70;99.90;;;;;;5071660;28;20635;-90
2023/12/20 01:13:30;;;;;;;87.07;38.13;;;5.70;99.90;;;;;;5051420;28;20560;-90
2023/12/20 01:15:56;;;;;;;83.53;36.47;;;5.80;99.90;;;;;;5047838;28;20041;-90
2023/12/20 01:18:22;;;;;;;98.20;40.17;;;5.80;99.90;;;;;;5047297;28;20029;-90
2023/12/20 01:20:52;;;;;;;93.28;38.28;;;5.70;99.90;;;;;;5043896;28;20040;-90
2023/12/20 01:23:19;;;;;;;92.85;39.13;;;5.70;99.90;;;;;;5043203;28;20079;-90
2023/12/20 01:25:45;;;;;;;82.63;35.30;;;5.70;99.90;;;;;;5042351;28;20448;-90
2023/12/20 01:28:11;;;;;;;84.63;36.13;;;5.70;99.90;;;;;;5044275;28;20048;-90
2023/12/20 01:30:38;;;;;;;73.35;32.00;;;5.70;99.90;;;;;;5044128;28;20119;-90
2023/12/20 01:33:04;;;;;;;77.32;32.63;;;5.80;99.90;;;;;;5044604;28;20071;-90
2023/12/20 01:35:31;;;;;;;77.70;34.47;;;5.70;99.90;;;;;;5043770;28;20025;-90
2023/12/20 01:37:57;;;;;;;79.07;33.80;;;5.70;99.90;;;;;;5042204;28;20112;-91
2023/12/20 01:40:24;;;;;;;77.05;35.15;;;5.60;99.90;;;;;;5042080;28;20029;-90
2023/12/20 01:43:02;;;;;;;63.75;31.90;;;5.50;99.90;;;;;;5041325;28;20112;-90
2023/12/20 01:45:28;;;;;;;66.18;31.85;;;5.50;99.90;;;;;;5041203;28;20025;-90
2023/12/20 01:47:57;;;;;;;67.50;31.67;;;5.40;99.90;;;;;;5041240;28;20040;-91
2023/12/20 01:50:24;;;;;;;66.43;31.05;;;5.40;99.90;;;;;;5041140;28;20116;-90
2023/12/20 01:52:57;;;;;;;56.45;28.38;;;5.30;99.90;;;;;;5041041;28;20099;-91
2023/12/20 01:55:28;;;;;;;55.90;28.17;;;5.30;99.90;;;;;;5040485;28;20124;-90
2023/12/20 01:57:59;;;;;;;66.72;28.05;;;5.30;99.90;;;;;;5041216;28;20033;-90
2023/12/20 02:00:27;;;;;;;85.43;31.80;;;5.30;99.90;;;;;;5041634;28;20398;-90
2023/12/20 02:02:55;;;;;;;73.25;31.77;;;5.30;99.90;;;;;;5041563;28;20049;-90
2023/12/20 02:05:22;;;;;;;66.55;30.85;;;5.30;99.90;;;;;;5041811;28;20033;-90
2023/12/20 02:07:48;;;;;;;100.32;34.08;;;5.30;99.90;;;;;;5038117;28;20033;-90
2023/12/20 02:10:16;;;;;;;79.43;33.78;;;5.30;99.90;;;;;;5048209;28;20014;-89
2023/12/20 02:12:42;;;;;;;77.72;32.83;;;5.30;99.90;;;;;;5049408;28;20042;-90
2023/12/20 02:15:09;;;;;;;96.38;35.83;;;5.30;99.90;;;;;;5037751;28;20052;-90
2023/12/20 02:17:38;;;;;;;99.00;32.92;;;5.20;99.90;;;;;;5036525;28;20544;-90
2023/12/20 02:20:05;;;;;;;153.18;38.13;;;5.20;99.90;;;;;;5020241;28;20037;-90
2023/12/20 02:22:32;;;;;;;153.20;36.10;;;5.10;99.90;;;;;;5053577;28;20047;-90
2023/12/20 02:24:59;;;;;;;168.52;40.97;;;5.10;99.90;;;;;;5056967;28;20025;-90
2023/12/20 02:27:29;;;;;;;189.75;40.97;;;5.20;99.90;;;;;;5041301;28;20548;-90
2023/12/20 02:30:01;;;;;;;174.77;43.10;;;5.20;99.90;;;;;;5040577;28;20021;-90
2023/12/20 02:32:28;;;;;;;116.50;37.95;;;5.20;99.90;;;;;;5040521;28;20040;-90
2023/12/20 02:34:55;;;;;;;85.65;37.65;;;5.20;99.90;;;;;;5041049;28;20074;-90
2023/12/20 02:37:21;;;;;;;120.00;38.95;;;5.20;99.90;;;;;;5041185;28;20106;-90
2023/12/20 02:39:48;;;;;;;130.23;38.88;;;5.10;99.90;;;;;;5041106;28;20021;-90
2023/12/20 02:42:14;;;;;;;99.22;38.53;;;5.00;99.90;;;;;;5040439;28;20025;-90
2023/12/20 02:44:40;;;;;;;90.97;36.38;;;5.10;99.90;;;;;;5041628;28;20048;-90
2023/12/20 02:47:07;;;;;;;99.47;36.75;;;5.10;99.90;;;;;;5041953;28;20029;-90
2023/12/20 02:49:33;;;;;;;95.70;38.60;;;5.10;99.90;;;;;;5042100;28;20055;-90
2023/12/20 02:51:59;;;;;;;90.72;36.67;;;5.00;99.90;;;;;;5041390;28;20032;-90
2023/12/20 02:54:26;;;;;;;84.65;35.15;;;5.10;99.90;;;;;;5040121;28;20025;-90
2023/12/20 02:56:52;;;;;;;78.93;34.85;;;5.10;99.90;;;;;;5039976;28;20108;-90
2023/12/20 02:59:18;;;;;;;86.30;37.05;;;5.00;99.90;;;;;;5040286;28;20111;-90
2023/12/20 03:01:46;;;;;;;78.72;34.78;;;5.00;99.90;;;;;;5039916;28;20040;-90
2023/12/20 03:04:15;;;;;;;82.28;33.35;;;5.00;99.90;;;;;;5039569;28;20029;-90
2023/12/20 03:06:41;;;;;;;63.65;29.33;;;5.10;99.90;;;;;;5039236;28;20037;-90
2023/12/20 03:09:11;;;;;;;46.83;23.13;;;5.00;99.90;;;;;;5038555;28;20032;-90
2023/12/20 03:11:40;;;;;;;55.70;24.58;;;5.20;99.90;;;;;;5038096;28;20021;-90
2023/12/20 03:14:07;;;;;;;59.45;25.65;;;5.20;99.90;;;;;;5038093;28;20043;-90
2023/12/20 03:16:33;;;;;;;58.85;25.27;;;5.30;99.90;;;;;;5038141;28;20064;-90
2023/12/20 03:19:03;;;;;;;59.50;25.63;;;5.40;99.90;;;;;;5038359;28;20083;-90
2023/12/20 03:21:35;;;;;;;52.95;25.13;;;5.40;99.90;;;;;;5038100;28;20072;-90
2023/12/20 03:24:02;;;;;;;48.30;25.80;;;5.30;99.90;;;;;;5037875;28;20037;-90
2023/12/20 03:26:28;;;;;;;49.17;23.77;;;5.20;99.90;;;;;;5038054;28;20017;-90
2023/12/20 03:28:55;;;;;;;48.25;25.17;;;5.20;99.90;;;;;;5038091;28;20486;-90
2023/12/20 03:31:21;;;;;;;52.88;24.98;;;5.30;99.90;;;;;;5038213;28;20115;-90
2023/12/20 03:33:48;;;;;;;49.90;23.83;;;5.20;99.90;;;;;;5038275;28;20045;-90
2023/12/20 03:36:14;;;;;;;49.63;24.25;;;5.20;99.90;;;;;;5044917;28;20018;-90
2023/12/20 03:38:41;;;;;;;54.28;24.27;;;5.20;99.90;;;;;;5034435;28;20033;-90
2023/12/20 03:41:07;;;;;;;48.92;23.70;;;5.30;99.90;;;;;;5035093;28;20033;-90
2023/12/20 03:43:33;;;;;;;48.35;22.70;;;5.30;99.90;;;;;;5035067;28;20120;-90
2023/12/20 03:46:04;;;;;;;47.25;22.40;;;5.40;99.90;;;;;;5034647;28;20068;-91
2023/12/20 03:48:31;;;;;;;47.17;22.55;;;5.50;99.90;;;;;;5040414;28;20018;-89
2023/12/20 03:50:57;;;;;;;47.13;23.02;;;5.50;99.90;;;;;;5050843;28;20038;-91
2023/12/20 03:53:23;;;;;;;43.40;21.35;;;5.50;99.90;;;;;;5035756;28;20441;-90
2023/12/20 03:55:53;;;;;;;43.28;21.92;;;5.60;99.90;;;;;;5033877;28;20044;-90
2023/12/20 03:58:22;;;;;;;43.33;22.02;;;5.60;99.90;;;;;;5034057;28;20040;-90
2023/12/20 04:00:48;;;;;;;44.75;23.02;;;5.60;99.90;;;;;;5035291;28;20044;-90
2023/12/20 04:03:15;;;;;;;45.08;22.90;;;5.60;99.90;;;;;;5036234;28;20041;-90
2023/12/20 04:05:42;;;;;;;42.70;20.52;;;5.60;99.90;;;;;;5027795;28;20108;-90
2023/12/20 04:08:09;;;;;;;49.28;23.83;;;5.50;99.90;;;;;;5039578;28;20029;-90
2023/12/20 04:10:37;;;;;;;44.65;22.10;;;5.50;99.90;;;;;;5038250;28;20029;-91
2023/12/20 04:13:04;;;;;;;47.10;23.95;;;5.50;99.90;;;;;;5038174;28;20056;-89
2023/12/20 04:15:30;;;;;;;49.10;23.02;;;5.40;99.90;;;;;;5036954;28;20098;-90
2023/12/20 04:17:57;;;;;;;52.45;24.75;;;5.50;99.90;;;;;;5036819;28;20033;-90
2023/12/20 04:20:23;;;;;;;48.33;23.50;;;5.50;99.90;;;;;;5036239;28;20085;-90
2023/12/20 04:22:49;;;;;;;56.90;24.83;;;5.50;99.90;;;;;;5037228;28;20036;-90
2023/12/20 04:25:15;;;;;;;57.72;24.50;;;5.50;99.90;;;;;;5040229;28;20044;-89
2023/12/20 04:27:45;;;;;;;47.50;23.38;;;5.50;99.90;;;;;;5038406;28;20033;-90
2023/12/20 04:30:12;;;;;;;61.95;24.73;;;5.60;99.90;;;;;;5036635;28;20381;-90
2023/12/20 04:32:38;;;;;;;58.97;25.17;;;5.50;99.90;;;;;;5053363;28;20033;-89
2023/12/20 04:35:05;;;;;;;53.17;24.52;;;5.60;99.90;;;;;;5036098;28;20051;-90
2023/12/20 04:37:31;;;;;;;57.95;25.25;;;5.60;99.90;;;;;;5053195;28;20032;-89
2023/12/20 04:40:01;;;;;;;62.30;25.92;;;5.60;99.90;;;;;;5036897;28;20032;-88
2023/12/20 04:42:27;;;;;;;56.72;24.83;;;5.60;99.90;;;;;;5053762;28;20056;-90
2023/12/20 04:44:54;;;;;;;51.33;23.92;;;5.60;99.90;;;;;;5036537;28;20029;-89
2023/12/20 04:47:20;;;;;;;60.15;24.70;;;5.50;99.90;;;;;;5036417;28;20138;-89
2023/12/20 04:49:47;;;;;;;54.83;24.25;;;5.50;99.90;;;;;;5036625;28;20044;-90
2023/12/20 04:52:14;;;;;;;57.20;23.48;;;5.60;99.90;;;;;;5052832;28;20036;-89
2023/12/20 04:54:40;;;;;;;55.78;24.38;;;5.60;99.90;;;;;;5036434;28;20033;-89
2023/12/20 04:57:07;;;;;;;53.17;24.30;;;5.60;99.90;;;;;;5053434;28;20033;-89
2023/12/20 04:59:33;;;;;;;59.65;25.95;;;5.60;99.90;;;;;;5037231;28;20423;-91
2023/12/20 05:02:00;;;;;;;79.10;26.48;;;5.50;99.90;;;;;;5053635;28;20085;-91
2023/12/20 05:04:26;;;;;;;66.45;27.77;;;5.50;99.90;;;;;;5036956;28;20039;-91
2023/12/20 05:06:53;;;;;;;86.60;28.85;;;5.50;99.90;;;;;;5036638;28;20025;-91
2023/12/20 05:09:22;;;;;;;118.82;30.70;;;5.50;99.90;;;;;;5036683;28;20029;-91
2023/12/20 05:11:49;;;;;;;113.13;30.55;;;5.40;99.90;;;;;;5036551;28;20029;-91
2023/12/20 05:14:15;;;;;;;109.88;30.45;;;5.40;99.90;;;;;;5037089;28;20025;-90
2023/12/20 05:16:41;;;;;;;128.32;32.42;;;5.40;99.90;;;;;;5033432;28;20478;-90
2023/12/20 05:19:08;;;;;;;110.93;29.30;;;5.40;99.90;;;;;;5033313;28;20030;-89
2023/12/20 05:21:34;;;;;;;77.13;29.27;;;5.40;99.90;;;;;;5033549;28;20033;-90
2023/12/20 05:24:00;;;;;;;161.73;30.60;;;5.40;99.90;;;;;;5034930;28;20029;-90
2023/12/20 05:26:29;;;;;;;86.70;26.95;;;5.40;99.90;;;;;;5039326;28;20020;-90
2023/12/20 05:28:58;;;;;;;152.13;30.00;;;5.40;99.90;;;;;;5052476;28;20045;-91
2023/12/20 05:31:28;;;;;;;112.15;30.30;;;5.30;99.90;;;;;;5038243;28;20037;-91
2023/12/20 05:33:58;;;;;;;114.22;30.25;;;5.30;99.90;;;;;;5034607;28;20103;-90
2023/12/20 05:36:24;;;;;;;185.35;33.25;;;5.30;99.90;;;;;;5033048;28;20022;-91
2023/12/20 05:39:06;;;;;;;;;;;;;;;;;;;;;
2023/12/20 05:41:36;;;;;;;105.28;31.15;;;5.40;99.90;;;;;;5030099;28;20041;-90
2023/12/20 05:44:04;;;;;;;131.10;30.58;;;5.40;99.90;;;;;;5036599;28;20036;-92
2023/12/20 05:46:39;;;;;;;138.32;31.17;;;5.50;99.90;;;;;;5036888;28;20103;-90
2023/12/20 05:49:15;;;;;;;;;;;5.50;99.90;;;;;;5040031;28;20030;-91
2023/12/20 05:51:45;;;;;;;171.65;27.55;;;5.60;99.90;;;;;;5037109;28;19988;-90
2023/12/20 05:54:11;;;;;;;114.25;24.35;;;5.70;99.90;;;;;;5037145;28;20034;-91
2023/12/20 05:56:37;;;;;;;158.13;26.50;;;5.70;99.90;;;;;;5037410;28;20034;-91
2023/12/20 05:59:04;;;;;;;107.82;22.35;;;5.70;99.90;;;;;;5036980;28;20029;-90
2023/12/20 06:01:33;;;;;;;135.88;25.13;;;5.80;99.90;;;;;;5039910;28;20128;-91
2023/12/20 06:04:00;;;;;;;127.75;21.70;;;5.80;99.90;;;;;;5040631;28;20078;-91
2023/12/20 06:06:26;;;;;;;146.10;22.33;;;5.90;99.90;;;;;;5040506;28;20037;-91
2023/12/20 06:08:53;;;;;;;130.05;21.48;;;5.90;99.90;;;;;;5038553;28;20120;-92
2023/12/20 06:11:22;;;;;;;94.57;20.13;;;6.00;99.90;;;;;;5055611;28;20036;-91
2023/12/20 06:13:51;;;;;;;90.07;18.92;;;6.00;99.90;;;;;;5039239;28;20037;-91
2023/12/20 06:16:18;;;;;;;106.15;18.52;;;6.00;99.90;;;;;;5055495;28;20110;-91
2023/12/20 06:18:44;;;;;;;108.57;19.30;;;6.00;99.90;;;;;;5038987;28;20027;-90
2023/12/20 06:21:12;;;;;;;83.72;19.92;;;6.00;99.90;;;;;;5056957;28;20036;-91
2023/12/20 06:23:41;;;;;;;67.43;19.52;;;6.10;99.90;;;;;;5055591;28;20028;-91
2023/12/20 06:26:07;;;;;;;55.13;18.20;;;6.10;99.90;;;;;;5038543;28;20566;-90
2023/12/20 06:28:34;;;;;;;86.93;20.23;;;6.20;99.90;;;;;;5038842;28;20052;-90
2023/12/20 06:31:00;;;;;;;95.68;23.50;;;6.20;99.90;;;;;;5056328;28;20094;-90
2023/12/20 06:33:27;;;;;;;66.75;21.83;;;6.20;99.90;;;;;;5038927;28;20041;-91
2023/12/20 06:35:54;;;;;;;80.82;21.05;;;6.20;99.90;;;;;;5039277;28;20025;-90
2023/12/20 06:38:20;;;;;;;95.80;22.63;;;6.20;99.90;;;;;;5040075;28;20029;-90
2023/12/20 06:40:47;;;;;;;88.95;22.17;;;6.20;99.90;;;;;;5057331;28;20095;-92
2023/12/20 06:43:13;;;;;;;58.70;18.40;;;6.30;99.90;;;;;;5042236;28;20050;-90
2023/12/20 06:45:40;;;;;;;63.42;18.75;;;6.40;99.90;;;;;;5060004;28;20033;-91
2023/12/20 06:48:11;;;;;;;58.33;19.55;;;6.40;99.90;;;;;;5043036;28;20569;-91
2023/12/20 06:50:39;;;;;;;61.15;17.85;;;6.50;99.90;;;;;;5042401;28;20112;-91
2023/12/20 06:53:06;;;;;;;61.10;17.77;;;6.60;99.90;;;;;;5041980;28;20442;-91
2023/12/20 06:55:36;;;;;;;82.18;18.58;;;6.60;99.90;;;;;;5041348;28;20037;-91
2023/12/20 06:58:03;;;;;;;48.03;16.92;;;6.60;99.90;;;;;;5041265;28;20025;-90
2023/12/20 07:00:30;;;;;;;64.85;17.73;;;6.70;99.90;;;;;;5040274;28;20028;-91
2023/12/20 07:02:56;;;;;;;68.60;19.73;;;6.80;99.90;;;;;;5039068;28;20083;-88
2023/12/20 07:05:23;;;;;;;65.57;22.77;;;6.90;99.90;;;;;;5040081;28;20031;-82
2023/12/20 07:07:49;;;;;;;70.18;25.63;;;7.00;99.90;;;;;;5045475;28;20029;-83
2023/12/20 07:10:22;;;;;;;44.15;19.90;;;7.20;99.90;;;;;;5053982;28;20029;-87
2023/12/20 07:12:49;;;;;;;121.38;21.58;;;7.20;99.90;;;;;;5054171;28;20044;-87
2023/12/20 07:15:16;;;;;;;58.78;17.17;;;7.20;99.90;;;;;;5037557;28;20025;-86
2023/12/20 07:17:43;;;;;;;78.18;18.65;;;7.30;99.90;;;;;;5054081;28;20083;-86
2023/12/20 07:20:10;;;;;;;59.65;18.40;;;7.40;99.90;;;;;;5037072;28;20067;-89
2023/12/20 07:22:37;;;;;;;41.88;19.25;;;7.50;99.90;;;;;;5037846;28;20037;-82
2023/12/20 07:25:04;;;;;;;148.43;19.15;;;7.50;99.90;;;;;;5055026;28;20029;-92
2023/12/20 07:27:31;;;;;;;75.53;15.20;;;7.60;99.90;;;;;;5040193;28;20078;-89
2023/12/20 07:29:57;;;;;;;73.68;12.40;;;7.70;99.90;;;;;;5041108;28;20027;-91
2023/12/20 07:32:23;;;;;;;69.55;11.95;;;7.80;99.90;;;;;;5038108;28;20036;-89
2023/12/20 07:34:50;;;;;;;18.20;9.85;;;7.90;99.90;;;;;;5039456;28;20017;-92
2023/12/20 07:37:16;;;;;;;37.10;12.45;;;7.90;99.90;;;;;;5056782;28;20096;-92
2023/12/20 07:39:43;;;;;;;52.38;10.38;;;8.00;99.90;;;;;;5046304;28;20044;-91
2023/12/20 07:42:12;;;;;;;38.60;11.93;;;8.10;99.90;;;;;;5044829;28;20028;-91
2023/12/20 07:44:42;;;;;;;81.38;12.32;;;8.20;99.90;;;;;;5038688;28;20143;-84
2023/12/20 07:47:16;;;;;;;25.30;10.32;;;8.10;99.90;;;;;;5053300;28;20032;-81
2023/12/20 07:50:08;;;;;;;72.45;12.65;;;8.20;99.90;;;;;;5052467;28;20045;-80
2023/12/20 07:52:53;;;;;;;65.00;13.85;;;8.30;99.90;;;;;;5028096;28;20086;-80
2023/12/20 07:55:49;;;;;;;28.40;12.60;;;8.30;99.90;;;;;;5019537;28;20029;-81
2023/12/20 07:58:26;;;;;;;127.38;15.63;;;8.50;99.90;;;;;;5017071;28;20038;-81
2023/12/20 08:01:05;;;;;;;73.80;12.82;;;8.60;99.90;;;;;;5040601;28;20180;-81
2023/12/20 08:03:35;;;;;;;41.60;13.82;;;8.80;99.90;;;;;;5032243;28;20091;-81
2023/12/20 08:06:10;;;;;;;53.47;13.98;;;8.90;99.90;;;;;;5052034;28;20028;-81
2023/12/20 08:08:37;;;;;;;43.47;12.98;;;9.00;99.90;;;;;;5053276;28;20095;-81
2023/12/20 08:11:04;;;;;;;22.75;12.68;;;9.20;99.90;;;;;;5051467;28;20157;-81
2023/12/20 08:13:31;;;;;;;52.00;13.00;;;9.20;99.90;;;;;;5035879;28;20041;-81
2023/12/20 08:15:57;;;;;;;37.75;12.93;;;9.30;99.90;;;;;;5051408;28;20057;-81
2023/12/20 08:18:23;;;;;;;45.00;13.80;;;9.30;99.90;;;;;;5051530;28;20028;-81
2023/12/20 08:20:52;;;;;;;83.57;16.40;;;9.30;99.90;;;;;;5053182;28;20021;-81
2023/12/20 08:23:20;;;;;;;40.42;15.63;;;9.30;99.90;;;;;;5050681;28;20036;-81
2023/12/20 08:25:46;;;;;;;39.42;15.40;;;9.40;99.90;;;;;;5047514;28;20105;-81
2023/12/20 08:28:13;;;;;;;32.40;14.70;;;9.60;99.90;;;;;;5031732;28;20025;-81
2023/12/20 08:30:40;;;;;;;26.65;14.68;;;9.80;99.90;;;;;;5031524;28;20029;-81
2023/12/20 08:33:11;;;;;;;26.08;14.85;;;9.90;99.90;;;;;;5015228;28;20041;-81
2023/12/20 08:35:37;;;;;;;32.47;14.80;;;10.20;99.90;;;;;;5034866;28;20028;-81
2023/12/20 08:38:04;;;;;;;32.90;16.95;;;10.40;99.90;;;;;;5051290;28;20024;-81
2023/12/20 08:40:30;;;;;;;37.75;19.00;;;10.50;99.90;;;;;;5051699;28;20036;-81
2023/12/20 08:42:56;;;;;;;35.67;17.90;;;10.70;99.90;;;;;;5052836;28;20108;-81
2023/12/20 08:45:23;;;;;;;35.80;16.67;;;10.90;99.90;;;;;;5051609;28;20029;-81
2023/12/20 08:47:49;;;;;;;32.97;17.00;;;10.90;99.90;;;;;;5034969;28;20041;-81
2023/12/20 08:50:15;;;;;;;41.85;18.48;;;10.80;99.90;;;;;;5051482;28;20124;-81
2023/12/20 08:52:42;;;;;;;25.77;16.77;;;10.80;99.90;;;;;;5035171;28;20036;-81
2023/12/20 08:55:10;;;;;;;35.97;17.50;;;10.90;99.90;;;;;;5053275;28;20079;-81
2023/12/20 08:57:36;;;;;;;38.13;19.20;;;11.00;99.90;;;;;;5015826;28;20118;-81
2023/12/20 09:00:04;;;;;;;43.60;18.80;;;11.30;99.90;;;;;;5032735;28;20033;-81
2023/12/20 09:02:30;;;;;;;35.35;19.50;;;11.30;99.90;;;;;;5031404;28;20053;-81
2023/12/20 09:04:56;;;;;;;63.28;21.17;;;11.50;99.90;;;;;;5031640;28;20032;-81
2023/12/20 09:07:26;;;;;;;43.97;19.35;;;11.30;99.90;;;;;;5048769;28;20079;-81
2023/12/20 09:09:55;;;;;;;47.88;20.48;;;11.30;99.90;;;;;;5035071;28;20031;-81
2023/12/20 09:12:23;;;;;;;33.00;19.02;;;11.30;99.90;;;;;;5051778;28;20116;-82
2023/12/20 09:14:52;;;;;;;33.53;18.80;;;11.60;99.90;;;;;;5035593;28;20100;-84
2023/12/20 09:17:22;;;;;;;27.50;19.08;;;11.70;99.90;;;;;;5035933;28;20029;-83
2023/12/20 09:19:52;;;;;;;34.25;18.95;;;11.90;99.90;;;;;;5032057;28;20029;-82
2023/12/20 09:22:23;;;;;;;24.33;18.80;;;12.00;99.90;;;;;;5019192;28;20502;-83
2023/12/20 09:24:51;;;;;;;24.58;19.25;;;11.90;99.90;;;;;;5019441;28;20033;-83
2023/12/20 09:27:18;;;;;;;22.83;20.02;;;11.90;99.90;;;;;;5035201;28;20505;-83
2023/12/20 09:29:48;;;;;;;25.67;21.60;;;12.10;99.90;;;;;;5055329;28;20112;-83
2023/12/20 09:32:16;;;;;;;32.20;22.52;;;12.30;99.90;;;;;;5039966;28;20037;-86
2023/12/20 09:34:43;;;;;;;28.55;24.17;;;12.30;99.90;;;;;;5056423;28;20040;-87
2023/12/20 09:37:10;;;;;;;30.88;23.50;;;12.60;99.90;;;;;;5039695;28;20479;-91
2023/12/20 09:39:37;;;;;;;33.05;24.42;;;12.60;99.90;;;;;;5056155;28;20071;-90
2023/12/20 09:42:18;;;;;;;27.45;24.52;;;12.60;99.90;;;;;;5039849;28;20021;-88
2023/12/20 09:44:47;;;;;;;28.60;25.70;;;12.70;99.90;;;;;;5040150;28;20403;-88
2023/12/20 09:47:16;;;;;;;27.77;25.10;;;12.70;99.90;;;;;;5036310;28;20500;-88
2023/12/20 09:49:46;;;;;;;27.65;24.90;;;12.70;99.90;;;;;;5032589;28;20025;-88
2023/12/20 09:52:14;;;;;;;27.10;24.50;;;12.80;99.90;;;;;;5019832;28;20036;-88
2023/12/20 09:54:43;;;;;;;26.27;23.63;;;13.00;99.90;;;;;;5019941;28;20033;-87
2023/12/20 09:57:10;;;;;;;25.35;22.92;;;13.10;99.90;;;;;;5019589;28;20089;-87
2023/12/20 09:59:37;;;;;;;25.48;22.85;;;13.40;99.90;;;;;;5027784;28;20036;-87
2023/12/20 10:02:07;;;;;;;25.45;22.85;;;13.60;99.90;;;;;;5052385;28;20065;-88
2023/12/20 10:04:33;;;;;;;27.83;23.75;;;13.70;99.90;;;;;;5052605;28;20025;-87
2023/12/20 10:07:05;;;;;;;25.42;22.92;;;13.90;99.90;;;;;;5052501;28;20509;-87
2023/12/20 10:09:32;;;;;;;24.25;22.10;;;13.80;99.90;;;;;;5052295;28;20021;-87
2023/12/20 10:11:59;;;;;;;25.30;22.88;;;14.00;99.90;;;;;;5055288;28;20029;-87
2023/12/20 10:14:25;;;;;;;26.63;22.27;;;14.20;99.90;;;;;;5055553;28;20041;-86
2023/12/20 10:16:51;;;;;;;29.00;23.05;;;14.40;99.90;;;;;;5038586;28;20096;-87
2023/12/20 10:19:19;;;;;;;22.67;20.50;;;14.60;99.90;;;;;;5056013;28;20037;-87
2023/12/20 10:21:45;;;;;;;21.30;19.05;;;14.90;99.90;;;;;;5038728;28;20025;-87
2023/12/20 10:24:17;;;;;;;20.50;18.70;;;15.00;99.90;;;;;;5038815;28;20033;-87
2023/12/20 10:26:43;;;;;;;21.88;19.65;;;15.00;99.90;;;;;;5035264;28;20036;-87
2023/12/20 10:29:10;;;;;;;21.92;19.95;;;15.00;99.90;;;;;;5035285;28;20043;-85
2023/12/20 10:31:38;;;;;;;21.75;19.92;;;15.00;99.90;;;;;;5036647;28;20021;-85
2023/12/20 10:34:05;;;;;;;22.30;20.40;;;15.00;99.90;;;;;;5037763;28;20034;-85
2023/12/20 10:36:36;;;;;;;22.33;20.50;;;15.10;99.90;;;;;;5047046;28;20029;-85
2023/12/20 10:39:02;;;;;;;21.60;19.70;;;15.40;99.90;;;;;;5057101;28;20032;-85
2023/12/20 10:41:31;;;;;;;21.63;19.92;;;15.60;99.90;;;;;;5039646;28;20028;-85
2023/12/20 10:44:05;;;;;;;23.50;21.60;;;15.50;99.90;;;;;;5056244;28;20025;-85
2023/12/20 10:46:34;;;;;;;22.00;20.17;;;15.50;99.90;;;;;;5042111;28;20029;-86
2023/12/20 10:49:03;;;;;;;21.63;19.90;;;15.70;99.90;;;;;;5040939;28;20033;-86
2023/12/20 10:51:30;;;;;;;22.38;20.48;;;15.60;99.90;;;;;;5039544;28;20029;-86
2023/12/20 10:53:56;;;;;;;24.05;21.88;;;15.70;99.90;;;;;;5039466;28;20083;-86
2023/12/20 10:56:23;;;;;;;26.02;23.63;;;15.70;99.90;;;;;;5052679;28;20474;-86
2023/12/20 10:58:50;;;;;;;23.65;21.73;;;15.80;99.90;;;;;;5038304;28;20041;-86
2023/12/20 11:01:18;;;;;;;22.65;20.67;;;15.80;99.90;;;;;;5035148;28;20028;-86
2023/12/20 11:03:53;;;;;;;22.55;20.77;;;15.80;99.90;;;;;;5018039;28;20088;-86
2023/12/20 11:06:54;;;;;;;22.33;20.58;;;15.60;99.90;;;;;;5018316;28;20036;-86
2023/12/20 11:09:34;;;;;;;21.42;19.92;;;15.70;99.90;;;;;;5026611;28;20488;-87
2023/12/20 11:12:53;;;;;;;21.48;19.80;;;15.70;99.90;;;;;;5054470;28;20040;-87
2023/12/20 11:15:20;;;;;;;21.65;19.98;;;15.60;99.90;;;;;;5029334;28;20402;-86
2023/12/20 11:17:54;;;;;;;24.60;22.35;;;15.50;99.90;;;;;;5034403;28;20526;-87
2023/12/20 11:20:23;;;;;;;22.65;20.75;;;15.70;99.90;;;;;;5034397;28;20030;-87
2023/12/20 11:22:54;;;;;;;22.10;20.40;;;15.70;99.90;;;;;;5034294;28;20041;-86
2023/12/20 11:25:21;;;;;;;21.95;20.35;;;15.70;99.90;;;;;;5054483;28;20074;-85
2023/12/20 11:28:09;;;;;;;21.42;19.83;;;15.60;99.90;;;;;;5037559;28;20024;-86
2023/12/20 11:30:52;;;;;;;22.30;20.60;;;15.60;99.90;;;;;;5031530;28;20029;-87
2023/12/20 11:33:48;;;;;;;21.53;19.93;;;15.60;99.90;;;;;;5017679;28;20095;-87
2023/12/20 11:36:18;;;;;;;22.73;21.08;;;15.70;99.90;;;;;;5038347;28;20314;-86
2023/12/20 11:39:08;;;;;;;21.83;20.02;;;15.70;99.90;;;;;;5037888;28;20501;-87
2023/12/20 11:41:37;;;;;;;22.38;20.67;;;15.80;99.90;;;;;;5037109;28;20025;-87
2023/12/20 11:44:04;;;;;;;21.85;20.15;;;16.00;99.90;;;;;;5037310;28;20025;-86
2023/12/20 11:46:33;;;;;;;21.90;20.30;;;16.00;99.90;;;;;;5034838;28;20028;-87
2023/12/20 11:49:01;;;;;;;21.80;20.10;;;16.00;99.90;;;;;;5048394;28;20079;-87
2023/12/20 11:51:27;;;;;;;21.13;19.52;;;16.00;99.90;;;;;;5045922;28;20059;-86
2023/12/20 11:53:53;;;;;;;21.92;20.23;;;15.90;99.90;;;;;;5037035;28;20041;-87
2023/12/20 11:56:20;;;;;;;21.48;20.02;;;15.90;99.90;;;;;;5025219;28;20025;-86
2023/12/20 11:58:46;;;;;;;21.77;20.27;;;15.90;99.90;;;;;;5017259;28;20029;-86
2023/12/20 12:01:13;;;;;;;22.10;20.50;;;16.00;99.90;;;;;;5016911;28;20553;-87
2023/12/20 12:03:40;;;;;;;25.10;22.33;;;15.70;99.90;;;;;;5017803;28;20383;-86
2023/12/20 12:06:07;;;;;;;27.58;24.08;;;15.70;99.90;;;;;;5022355;28;20029;-87
2023/12/20 12:08:33;;;;;;;21.70;20.10;;;15.70;99.90;;;;;;5036930;28;20058;-87
2023/12/20 12:11:00;;;;;;;21.75;20.15;;;15.60;99.90;;;;;;5037031;28;20064;-87
2023/12/20 12:13:27;;;;;;;21.08;19.58;;;15.50;99.90;;;;;;5031555;28;20105;-86
2023/12/20 12:15:54;;;;;;;21.05;19.48;;;15.50;99.90;;;;;;5017166;28;20119;-86
2023/12/20 12:18:20;;;;;;;21.17;19.77;;;15.60;99.90;;;;;;5037584;28;20078;-86
2023/12/20 12:20:47;;;;;;;21.95;20.27;;;15.70;99.90;;;;;;5036715;28;20031;-86
2023/12/20 12:23:13;;;;;;;21.48;19.95;;;15.80;99.90;;;;;;5037044;28;20032;-86
2023/12/20 12:25:40;;;;;;;22.50;20.90;;;15.90;99.90;;;;;;5036677;28;20040;-87
2023/12/20 12:28:07;;;;;;;22.02;20.40;;;15.90;99.90;;;;;;5018162;28;20109;-86
2023/12/20 12:30:33;;;;;;;23.50;21.60;;;15.90;99.90;;;;;;5036784;28;20437;-86
2023/12/20 12:32:59;;;;;;;23.15;21.40;;;15.80;99.90;;;;;;5036727;28;20037;-86
2023/12/20 12:35:26;;;;;;;22.13;20.52;;;15.70;99.90;;;;;;5036485;28;20478;-87
2023/12/20 12:37:52;;;;;;;20.27;18.90;;;15.80;99.90;;;;;;5033108;28;20033;-86
2023/12/20 12:40:19;;;;;;;20.80;19.33;;;15.90;99.90;;;;;;5032950;28;20099;-87